Time;durP1;ratioP1;P1;durP2;ratioP2;P2;SDS_P1;SDS_P2;PMS_P1;PMS_P2;Temp;Humidity;BMP_temperature;BMP_pressure;BME280_temperature;BME280_humidity;BME280_pressure;Samples;Min_cycle;Max_cycle;Signal;HPM_P1;HPM_P2
2022/11/17 00:01:04;;;;;;;;;;;;;;;5.65;100.00;99680.34;2097207;28;36788;-73
2022/11/17 00:02:05;;;;;;;;;;;;;;;5.64;100.00;99690.09;2097690;28;31656;-71
2022/11/17 00:03:12;;;;;;;;;;;;;;;5.63;100.00;99706.94;2096801;28;41449;-72
2022/11/17 00:04:13;;;;;;;;;;;;;;;5.64;100.00;99679.47;2098111;28;19927;-72
2022/11/17 00:05:15;;;;;;;;;;;;;;;5.64;100.00;99671.50;2097225;28;39599;-71
2022/11/17 00:06:20;;;;;;;;;;;;;;;5.64;100.00;99686.59;2097383;28;37846;-71
2022/11/17 00:07:22;;;;;;;;;;;;;;;5.64;100.00;99683.94;2097410;28;31571;-72
2022/11/17 00:08:26;;;;;;;;;;;;;;;5.65;100.00;99675.03;2097943;28;20694;-71
2022/11/17 00:09:27;;;;;;;;;;;;;;;5.64;100.00;99678.63;2096685;28;39397;-71
2022/11/17 00:10:29;;;;;;;;;;;;;;;5.64;100.00;99658.25;2097541;28;36568;-71
2022/11/17 00:14:31;;;;;;;;;;;;;;;5.63;100.00;99659.13;2097006;28;35988;-71
2022/11/17 00:15:32;;;;;;;;;;;;;;;5.66;100.00;99661.72;2097040;28;42494;-71
2022/11/17 00:16:34;;;;;;;;;;;;;;;5.66;100.00;99644.94;2097668;28;30815;-71
2022/11/17 00:17:35;;;;;;;;;;;;;;;5.65;100.00;99667.06;2097673;28;33973;-71
2022/11/17 00:21:22;;;;;;;;;;;;;;;5.65;100.00;99649.38;2097838;28;19927;-68
2022/11/17 00:22:24;;;;;;;;;;;;;;;5.65;100.00;99643.16;2097377;28;35873;-66
2022/11/17 00:24:49;;;;;;;;;;;;;;;5.66;100.00;99605.09;2097025;28;39180;-72
2022/11/17 00:25:51;;;;;;;;;;;;;;;5.67;100.00;99646.66;2097091;28;35218;-72
2022/11/17 00:27:01;;;;;;;;;;;;;;;5.68;100.00;99643.97;2096850;28;35152;-72
2022/11/17 00:28:03;;;;;;;;;;;;;;;5.67;100.00;99623.66;2097190;28;39567;-72
2022/11/17 00:29:05;;;;;;;;;;;;;;;5.68;100.00;99614.75;2096777;28;33730;-72
2022/11/17 00:34:03;;;;;;;;;;;;;;;5.68;100.00;99633.34;2097431;28;20770;-72
2022/11/17 00:34:20;;;;;;;;;;;;;;;5.67;100.00;99618.34;2097217;28;42266;-71
2022/11/17 00:35:22;;;;;;;;;;;;;;;5.66;100.00;99621.91;2097156;28;37968;-71
2022/11/17 00:36:24;;;;;;;;;;;;;;;5.68;100.00;99603.28;2097315;28;38688;-71
2022/11/17 00:37:28;;;;;;;;;;;;;;;5.66;100.00;99605.97;2096836;28;36598;-72
2022/11/17 00:38:30;;;;;;;;;;;;;;;5.66;100.00;99595.34;2097167;28;32907;-72
2022/11/17 00:39:32;;;;;;;;;;;;;;;5.67;100.00;99591.78;2097511;28;35265;-72
2022/11/17 00:40:33;;;;;;;;;;;;;;;5.67;100.00;99598.84;2097401;28;26929;-72
2022/11/17 00:41:35;;;;;;;;;;;;;;;5.67;100.00;99621.00;2096595;28;44016;-71
2022/11/17 00:42:37;;;;;;;;;;;;;;;5.68;100.00;99590.00;2097689;28;35363;-72
2022/11/17 00:43:38;;;;;;;;;;;;;;;5.67;100.00;99591.78;2097117;28;38093;-72
2022/11/17 00:44:40;;;;;;;;;;;;;;;5.67;100.00;99573.19;2097340;28;32649;-71
2022/11/17 00:45:41;;;;;;;;;;;;;;;5.68;100.00;99593.50;2096977;28;35694;-71
2022/11/17 00:46:43;;;;;;;;;;;;;;;5.67;100.00;99589.13;2097241;28;31911;-72
2022/11/17 00:47:47;;;;;;;;;;;;;;;5.67;100.00;99577.63;2097370;28;31770;-72
2022/11/17 00:48:49;;;;;;;;;;;;;;;5.66;100.00;99589.16;2096994;28;42820;-72
2022/11/17 00:49:50;;;;;;;;;;;;;;;5.66;100.00;99568.78;2097087;28;35905;-72
2022/11/17 00:50:52;;;;;;;;;;;;;;;5.67;100.00;99580.28;2097004;28;36079;-72
2022/11/17 00:51:55;;;;;;;;;;;;;;;5.66;100.00;99571.44;2096889;28;37287;-71
2022/11/17 00:52:56;;;;;;;;;;;;;;;5.65;100.00;99588.31;2096965;28;32277;-72
2022/11/17 00:53:58;;;;;;;;;;;;;;;5.65;100.00;99572.38;2096715;28;40178;-72
2022/11/17 00:55:00;;;;;;;;;;;;;;;5.66;100.00;99573.22;2097218;28;34969;-72
2022/11/17 00:56:01;;;;;;;;;;;;;;;5.67;100.00;99562.59;2096996;28;26568;-72
2022/11/17 00:57:03;;;;;;;;;;;;;;;5.67;100.00;99557.28;2097094;28;40234;-72
2022/11/17 00:58:05;;;;;;;;;;;;;;;5.67;100.00;99554.63;2097949;28;19920;-72
2022/11/17 00:59:06;;;;;;;;;;;;;;;5.66;100.00;99555.50;2096932;28;36044;-73
2022/11/17 01:00:10;;;;;;;;;;;;;;;5.68;100.00;99556.34;2096619;28;33798;-72
2022/11/17 01:01:12;;;;;;;;;;;;;;;5.68;100.00;99559.00;2097612;28;19934;-72
2022/11/17 01:02:14;;;;;;;;;;;;;;;5.67;100.00;99548.41;2097136;28;39837;-72
2022/11/17 01:03:18;;;;;;;;;;;;;;;5.66;100.00;99539.56;2097042;28;31975;-72
2022/11/17 01:04:20;;;;;;;;;;;;;;;5.66;100.00;99560.81;2097740;28;30719;-72
2022/11/17 01:05:21;;;;;;;;;;;;;;;5.65;100.00;99548.47;2097196;28;33858;-72
2022/11/17 01:06:23;;;;;;;;;;;;;;;5.68;100.00;99542.19;2097193;28;32489;-71
2022/11/17 01:07:24;;;;;;;;;;;;;;;5.66;100.00;99536.06;2097184;28;38630;-72
2022/11/17 01:08:26;;;;;;;;;;;;;;;5.66;100.00;99530.75;2096801;28;41401;-71
2022/11/17 01:09:27;;;;;;;;;;;;;;;5.66;100.00;99538.72;2096625;28;33096;-71
2022/11/17 01:10:29;;;;;;;;;;;;;;;5.66;100.00;99499.75;2097057;28;37859;-73
2022/11/17 01:11:30;;;;;;;;;;;;;;;5.66;100.00;99521.00;2096822;28;40826;-72
2022/11/17 01:12:32;;;;;;;;;;;;;;;5.67;100.00;99538.69;2097296;28;20705;-72
2022/11/17 01:13:34;;;;;;;;;;;;;;;5.67;100.00;99551.06;2096964;28;38164;-72
2022/11/17 01:14:36;;;;;;;;;;;;;;;5.66;100.00;99518.34;2097197;28;30012;-72
2022/11/17 01:15:37;;;;;;;;;;;;;;;5.65;100.00;99513.97;2096693;28;34977;-73
2022/11/17 01:16:39;;;;;;;;;;;;;;;5.65;100.00;99540.50;2097191;28;33129;-72
2022/11/17 01:17:41;;;;;;;;;;;;;;;5.64;100.00;99533.44;2097336;28;31424;-72
2022/11/17 01:18:44;;;;;;;;;;;;;;;5.65;100.00;99527.22;2096502;28;33419;-72
2022/11/17 01:19:48;;;;;;;;;;;;;;;5.66;100.00;99522.78;2096781;28;36471;-72
2022/11/17 01:20:49;;;;;;;;;;;;;;;5.66;100.00;99526.31;2096204;28;29028;-72
2022/11/17 01:21:51;;;;;;;;;;;;;;;5.65;100.00;99513.97;2097207;28;33198;-72
2022/11/17 01:22:55;;;;;;;;;;;;;;;5.66;100.00;99513.03;2096336;28;40505;-72
2022/11/17 01:23:58;;;;;;;;;;;;;;;5.65;100.00;99503.34;2097086;28;31286;-72
2022/11/17 01:25:03;;;;;;;;;;;;;;;5.65;100.00;99490.06;2097061;28;27672;-72
2022/11/17 01:26:08;;;;;;;;;;;;;;;5.65;100.00;99503.34;2098007;28;19916;-72
2022/11/17 01:27:10;;;;;;;;;;;;;;;5.65;100.00;99506.00;2096818;28;34322;-72
2022/11/17 01:28:11;;;;;;;;;;;;;;;5.66;100.00;99514.81;2096990;28;34145;-75
2022/11/17 01:29:15;;;;;;;;;;;;;;;5.65;100.00;99519.28;2096802;28;32023;-71
2022/11/17 01:30:17;;;;;;;;;;;;;;;5.64;100.00;99488.31;2097058;28;30522;-72
2022/11/17 01:31:25;;;;;;;;;;;;;;;5.64;100.00;99493.63;2096776;28;38348;-72
2022/11/17 01:32:26;;;;;;;;;;;;;;;5.64;100.00;99493.63;2096831;28;35148;-72
2022/11/17 01:33:28;;;;;;;;;;;;;;;5.64;100.00;99500.72;2096131;28;38764;-73
2022/11/17 01:34:29;;;;;;;;;;;;;;;5.61;100.00;99493.69;2097151;28;31203;-72
2022/11/17 01:35:32;;;;;;;;;;;;;;;5.61;100.00;99491.03;2096777;28;38387;-71
2022/11/17 01:37:57;;;;;;;;;;;;;;;5.60;100.00;99486.66;2096792;28;39919;-72
2022/11/17 01:38:58;;;;;;;;;;;;;;;5.60;100.00;99491.97;2096915;28;31426;-72
2022/11/17 01:40:00;;;;;;;;;;;;;;;5.58;100.00;99467.25;2097425;28;19921;-72
2022/11/17 01:41:04;;;;;;;;;;;;;;;5.58;100.00;99477.84;2096435;28;39543;-71
2022/11/17 01:42:14;;;;;;;;;;;;;;;5.56;100.00;99479.66;2096837;28;31775;-72
2022/11/17 01:43:16;;;;;;;;;;;;;;;5.55;100.00;99481.44;2097460;28;20827;-72
2022/11/17 01:44:48;;;;;;;;;;;;;;;5.54;100.00;99463.78;2096944;28;33283;-72
2022/11/17 01:45:50;;;;;;;;;;;;;;;5.53;100.00;99490.38;2097292;28;19920;-71
2022/11/17 01:46:51;;;;;;;;;;;;;;;5.52;100.00;99488.63;2096808;28;36722;-72
2022/11/17 01:48:01;;;;;;;;;;;;;;;5.52;100.00;99493.94;2096987;28;28024;-72
2022/11/17 01:49:12;;;;;;;;;;;;;;;5.51;100.00;99500.16;2096656;28;37537;-72
2022/11/17 01:50:32;;;;;;;;;;;;;;;5.51;100.00;99497.50;2097581;28;31923;-72
2022/11/17 01:51:36;;;;;;;;;;;;;;;5.51;100.00;99481.59;2088877;28;32340;-72
2022/11/17 01:52:39;;;;;;;;;;;;;;;5.50;100.00;99491.31;2088456;28;34194;-71
2022/11/17 01:53:44;;;;;;;;;;;;;;;5.48;100.00;99473.69;2088363;28;32046;-72
2022/11/17 01:54:47;;;;;;;;;;;;;;;5.48;100.00;99476.34;2089136;28;19917;-72
2022/11/17 01:55:55;;;;;;;;;;;;;;;5.47;100.00;99479.91;2088148;28;38919;-72
2022/11/17 01:57:05;;;;;;;;;;;;;;;5.44;100.00;99488.81;2089106;28;19913;-72
2022/11/17 01:58:12;;;;;;;;;;;;;;;5.45;100.00;99479.06;2087686;28;43411;-71
2022/11/17 01:59:21;;;;;;;;;;;;;;;5.45;100.00;99471.97;2088362;28;36920;-72
2022/11/17 02:00:23;;;;;;;;;;;;;;;5.43;100.00;99487.06;2088292;28;38546;-72
2022/11/17 02:01:25;;;;;;;;;;;;;;;5.43;100.00;99494.16;2089137;28;22827;-71
2022/11/17 02:02:27;;;;;;;;;;;;;;;5.42;100.00;99468.53;2088494;28;32146;-71
2022/11/17 02:03:33;;;;;;;;;;;;;;;5.41;100.00;99465.00;2088487;28;25301;-71
2022/11/17 02:04:41;;;;;;;;;;;;;;;5.38;100.00;99483.66;2088591;28;33570;-72
2022/11/17 02:06:06;;;;;;;;;;;;;;;5.40;100.00;99471.25;2089128;28;20221;-72
2022/11/17 02:07:18;;;;;;;;;;;;;;;5.38;100.00;99461.56;2088493;28;41580;-72
2022/11/17 02:08:24;;;;;;;;;;;;;;;5.37;100.00;99451.88;2089243;28;19984;-72
2022/11/17 02:09:26;;;;;;;;;;;;;;;5.36;100.00;99464.25;2088552;28;41547;-71
2022/11/17 02:10:30;;;;;;;;;;;;;;;5.37;100.00;99457.19;2088539;28;31091;-71
2022/11/17 02:11:34;;;;;;;;;;;;;;;5.34;100.00;99451.00;2087911;28;31386;-72
2022/11/17 02:12:37;;;;;;;;;;;;;;;5.35;100.00;99458.06;2088111;28;38962;-70
2022/11/17 02:13:42;;;;;;;;;;;;;;;5.34;100.00;99432.44;2088969;28;39097;-72
2022/11/17 02:14:47;;;;;;;;;;;;;;;5.34;100.00;99469.59;2087723;28;38644;-73
2022/11/17 02:15:49;;;;;;;;;;;;;;;5.34;100.00;99447.50;2088552;28;37547;-71
2022/11/17 02:16:50;;;;;;;;;;;;;;;5.35;100.00;99438.63;2088191;28;37064;-71
2022/11/17 02:17:53;;;;;;;;;;;;;;;5.34;100.00;99439.53;2088276;28;38586;-71
2022/11/17 02:18:55;;;;;;;;;;;;;;;5.35;100.00;99451.91;2088037;28;40068;-72
2022/11/17 02:20:08;;;;;;;;;;;;;;;5.35;100.00;99443.94;2088357;28;39007;-71
2022/11/17 02:21:31;;;;;;;;;;;;;;;5.34;100.00;99428.91;2092091;28;39829;-72
2022/11/17 02:22:58;;;;;;;;;;;;;;;5.34;100.00;99428.91;2096307;28;27572;-71
2022/11/17 02:24:21;;;;;;;;;;;;;;;5.33;100.00;99424.53;2096825;28;43851;-71
2022/11/17 02:25:50;;;;;;;;;;;;;;;5.32;100.00;99423.66;2096454;28;32988;-71
2022/11/17 02:27:19;;;;;;;;;;;;;;;5.32;100.00;99422.78;2096284;28;40803;-71
2022/11/17 02:28:33;;;;;;;;;;;;;;;5.31;100.00;99416.63;2096932;28;33406;-72
2022/11/17 02:29:54;;;;;;;;;;;;;;;5.32;100.00;99442.22;2097401;28;19912;-71
2022/11/17 02:31:11;;;;;;;;;;;;;;;5.33;100.00;99420.09;2096482;28;35718;-71
2022/11/17 02:32:20;;;;;;;;;;;;;;;5.34;100.00;99439.53;2097513;28;19921;-73
2022/11/17 02:33:37;;;;;;;;;;;;;;;5.31;100.00;99411.31;2097466;28;32653;-71
2022/11/17 02:35:03;;;;;;;;;;;;;;;5.32;100.00;99397.09;2098073;28;34250;-71
2022/11/17 02:36:39;;;;;;;;;;;;;;;5.32;100.00;99418.34;2098067;28;34954;-71
2022/11/17 02:37:59;;;;;;;;;;;;;;;5.30;100.00;99420.16;2098709;28;19921;-71
2022/11/17 02:39:13;;;;;;;;;;;;;;;5.30;100.00;99420.16;2098544;28;28185;-71
2022/11/17 02:40:20;;;;;;;;;;;;;;;5.29;100.00;99433.47;2099279;28;19925;-71
2022/11/17 02:41:28;;;;;;;;;;;;;;;5.30;100.00;99313.16;2097058;28;35710;-71
2022/11/17 02:44:12;;;;;;;;;;;;;;;5.28;100.00;99395.44;2097902;28;31960;-71
2022/11/17 02:45:20;;;;;;;;;;;;;;;5.27;100.00;99409.63;2097794;28;35704;-71
2022/11/17 02:46:30;;;;;;;;;;;;;;;5.27;100.00;99375.13;2098094;28;37084;-71
2022/11/17 02:47:40;;;;;;;;;;;;;;;5.26;100.00;99391.97;2098634;28;19924;-71
2022/11/17 02:48:59;;;;;;;;;;;;;;;5.25;100.00;99406.13;2098156;28;36104;-71
2022/11/17 02:50:06;;;;;;;;;;;;;;;5.24;100.00;99383.19;2097719;28;35287;-72
2022/11/17 02:51:13;;;;;;;;;;;;;;;5.24;100.00;99409.72;2098230;28;36061;-71
2022/11/17 02:52:19;;;;;;;;;;;;;;;5.25;100.00;99376.94;2096861;28;43589;-71
2022/11/17 02:53:24;;;;;;;;;;;;;;;5.25;100.00;99360.16;2097885;28;29408;-71
2022/11/17 02:54:29;;;;;;;;;;;;;;;5.26;100.00;99418.50;2097802;28;39790;-71
2022/11/17 02:55:34;;;;;;;;;;;;;;;5.26;100.00;99380.50;2098828;28;19925;-72
2022/11/17 02:56:41;;;;;;;;;;;;;;;5.27;100.00;99399.00;2097541;28;33299;-71
2022/11/17 02:57:42;;;;;;;;;;;;;;;5.26;100.00;99386.66;2098109;28;34135;-71
2022/11/17 02:58:48;;;;;;;;;;;;;;;5.25;100.00;99384.91;2097396;28;31595;-71
2022/11/17 02:59:50;;;;;;;;;;;;;;;5.25;100.00;99397.31;2098064;28;39634;-71
2022/11/17 03:01:04;;;;;;;;;;;;;;;5.26;100.00;99377.84;2091386;28;31411;-71
2022/11/17 03:02:21;;;;;;;;;;;;;;;5.26;100.00;99372.53;2089817;28;35292;-71
2022/11/17 03:03:52;;;;;;;;;;;;;;;5.24;100.00;99387.59;2090424;28;20039;-72
2022/11/17 03:05:05;;;;;;;;;;;;;;;5.24;100.00;99396.47;2071705;28;36815;-71
2022/11/17 03:06:42;;;;;;;;;;;;;;;5.25;100.00;99390.22;2074247;28;37871;-70
2022/11/17 03:08:07;;;;;;;;;;;;;;;5.24;100.00;99465.44;2089301;28;38120;-72
2022/11/17 03:09:20;;;;;;;;;;;;;;;5.24;100.00;99388.50;2089004;28;38199;-70
2022/11/17 03:10:34;;;;;;;;;;;;;;;5.25;100.00;99355.72;2089303;28;36094;-71
2022/11/17 03:11:57;;;;;;;;;;;;;;;5.25;100.00;99392.00;2089891;28;19916;-71
2022/11/17 03:13:29;;;;;;;;;;;;;;;5.26;100.00;99383.16;2089447;28;42439;-71
2022/11/17 03:15:02;;;;;;;;;;;;;;;5.26;100.00;99383.16;2085350;28;34294;-71
2022/11/17 03:16:28;;;;;;;;;;;;;;;5.26;100.00;99333.59;2090029;28;20301;-71
2022/11/17 03:17:53;;;;;;;;;;;;;;;5.27;100.00;99377.78;2089359;28;35282;-71
2022/11/17 03:19:17;;;;;;;;;;;;;;;5.26;100.00;99381.38;2089994;28;20770;-71
2022/11/17 03:20:23;;;;;;;;;;;;;;;5.26;100.00;99357.47;2089260;28;41018;-70
2022/11/17 03:21:35;;;;;;;;;;;;;;;5.27;100.00;99372.47;2095499;28;25881;-70
2022/11/17 03:22:47;;;;;;;;;;;;;;;5.27;100.00;99372.47;2097984;28;39141;-71
2022/11/17 03:23:58;;;;;;;;;;;;;;;5.27;100.00;99376.91;2097143;28;39307;-71
2022/11/17 03:25:10;;;;;;;;;;;;;;;5.27;100.00;99366.31;2097464;28;32994;-71
2022/11/17 03:26:21;;;;;;;;;;;;;;;5.26;100.00;99360.13;2097068;28;36790;-71
2022/11/17 03:27:32;;;;;;;;;;;;;;;5.26;100.00;99402.59;2097127;28;38008;-71
2022/11/17 03:28:35;;;;;;;;;;;;;;;5.28;100.00;99384.84;2097362;28;37046;-71
2022/11/17 03:29:41;;;;;;;;;;;;;;;5.27;100.00;99361.84;2097010;28;38864;-71
2022/11/17 03:30:46;;;;;;;;;;;;;;;5.29;100.00;99343.25;2097602;28;33385;-71
2022/11/17 03:31:54;;;;;;;;;;;;;;;5.29;100.00;99389.25;2096828;28;39479;-71
2022/11/17 03:33:04;;;;;;;;;;;;;;;5.30;100.00;99414.84;2098242;28;32692;-72
2022/11/17 03:34:11;;;;;;;;;;;;;;;5.30;100.00;99358.28;2097640;28;33305;-70
2022/11/17 03:35:17;;;;;;;;;;;;;;;5.30;100.00;99345.88;2097436;28;40126;-69
2022/11/17 03:36:26;;;;;;;;;;;;;;;5.30;100.00;99367.09;2097544;28;31743;-70
2022/11/17 03:37:32;;;;;;;;;;;;;;;5.32;100.00;99359.97;2097333;28;36731;-71
2022/11/17 03:38:38;;;;;;;;;;;;;;;5.33;100.00;99318.38;2098174;28;19921;-70
2022/11/17 03:39:46;;;;;;;;;;;;;;;5.33;100.00;99361.72;2091999;28;35494;-70
2022/11/17 03:40:51;;;;;;;;;;;;;;;5.33;100.00;99344.94;2089097;28;36489;-71
2022/11/17 03:41:58;;;;;;;;;;;;;;;5.32;100.00;99332.56;2089438;28;33732;-71
2022/11/17 03:43:06;;;;;;;;;;;;;;;5.32;100.00;99351.13;2089561;28;34849;-70
2022/11/17 03:44:08;;;;;;;;;;;;;;;5.32;100.00;99344.03;2089217;28;19928;-71
2022/11/17 03:45:17;;;;;;;;;;;;;;;5.34;100.00;99346.66;2089131;28;38826;-71
2022/11/17 03:46:22;;;;;;;;;;;;;;;5.33;100.00;99340.47;2089713;28;33351;-70
2022/11/17 03:47:26;;;;;;;;;;;;;;;5.33;100.00;99308.63;2088966;28;31681;-70
2022/11/17 03:48:41;;;;;;;;;;;;;;;5.33;100.00;99345.78;2088681;28;42104;-71
2022/11/17 03:49:46;;;;;;;;;;;;;;;5.32;100.00;99327.25;2090110;28;19951;-70
2022/11/17 03:50:57;;;;;;;;;;;;;;;5.32;100.00;99333.41;2090164;28;21445;-71
2022/11/17 03:51:59;;;;;;;;;;;;;;;5.31;100.00;99326.38;2097446;28;37203;-70
2022/11/17 03:53:03;;;;;;;;;;;;;;;5.31;100.00;99307.81;2097220;28;38827;-70
2022/11/17 03:54:07;;;;;;;;;;;;;;;5.32;100.00;99336.06;2097167;28;40772;-70
2022/11/17 03:55:09;;;;;;;;;;;;;;;5.31;100.00;99309.56;2097493;28;30886;-71
2022/11/17 03:56:26;;;;;;;;;;;;;;;5.31;100.00;99320.19;2098562;28;19917;-70
2022/11/17 03:57:37;;;;;;;;;;;;;;;5.31;100.00;99310.47;2097469;28;35879;-70
2022/11/17 03:58:45;;;;;;;;;;;;;;;5.31;100.00;99331.69;2097768;28;34002;-69
2022/11/17 04:00:09;;;;;;;;;;;;;;;5.30;100.00;99329.94;2097382;28;36592;-70
2022/11/17 04:01:14;;;;;;;;;;;;;;;5.31;100.00;99328.16;2098209;28;19931;-70
2022/11/17 04:02:18;;;;;;;;;;;;;;;5.32;100.00;99321.94;2097596;28;30002;-70
2022/11/17 04:03:27;;;;;;;;;;;;;;;5.33;100.00;99337.81;2096990;28;41436;-70
2022/11/17 04:05:04;;;;;;;;;;;;;;;5.33;100.00;99326.34;2097349;28;31442;-70
2022/11/17 04:05:50;;;;;;;;;;;;;;;5.31;100.00;99310.47;2097624;28;41559;-71
2022/11/17 04:06:52;;;;;;;;;;;;;;;5.30;100.00;99300.75;2098004;28;19924;-70
2022/11/17 04:07:53;;;;;;;;;;;;;;;5.30;100.00;99324.63;2096998;28;36084;-70
2022/11/17 04:08:55;;;;;;;;;;;;;;;5.29;100.00;99307.00;2097680;28;28738;-70
2022/11/17 04:09:59;;;;;;;;;;;;;;;5.29;100.00;99293.72;2098076;28;19920;-70
2022/11/17 04:16:29;;;;;;;;;;;;;;;5.30;100.00;99323.78;2097334;28;37494;-70
2022/11/17 04:17:30;;;;;;;;;;;;;;;5.29;100.00;99306.09;2097262;28;35989;-71
2022/11/17 04:18:32;;;;;;;;;;;;;;;5.29;100.00;99314.06;2097371;28;38228;-70
2022/11/17 04:19:33;;;;;;;;;;;;;;;5.29;100.00;99309.63;2097277;28;33440;-70
2022/11/17 04:20:35;;;;;;;;;;;;;;;5.29;100.00;99308.75;2098123;28;19920;-69
2022/11/17 04:21:36;;;;;;;;;;;;;;;5.30;100.00;99319.31;2087664;28;31086;-70
2022/11/17 04:22:38;;;;;;;;;;;;;;;5.31;100.00;99299.84;2089242;28;31597;-70
2022/11/17 04:23:39;;;;;;;;;;;;;;;5.30;100.00;99305.19;2089119;28;32520;-70
2022/11/17 04:24:41;;;;;;;;;;;;;;;5.31;100.00;99321.09;2089169;28;32706;-69
2022/11/17 04:28:36;;;;;;;;;;;;;;;5.31;100.00;99302.50;2088989;28;34140;-70
2022/11/17 04:29:37;;;;;;;;;;;;;;;5.31;100.00;99291.88;2088868;28;41700;-70
2022/11/17 04:30:39;;;;;;;;;;;;;;;5.30;100.00;99311.38;2089000;28;38131;-70
2022/11/17 04:31:40;;;;;;;;;;;;;;;5.31;100.00;99289.25;2089190;28;32023;-70
2022/11/17 04:32:42;;;;;;;;;;;;;;;5.31;100.00;99297.19;2089409;28;19961;-70
2022/11/17 04:33:55;;;;;;;;;;;;;;;5.32;100.00;99296.25;2088932;28;35745;-70
2022/11/17 04:34:57;;;;;;;;;;;;;;;5.34;100.00;99257.28;2089169;28;37372;-70
2022/11/17 04:35:59;;;;;;;;;;;;;;;5.34;100.00;99297.09;2088435;28;36232;-70
2022/11/17 04:37:00;;;;;;;;;;;;;;;5.34;100.00;99171.50;2089069;28;38713;-70
2022/11/17 04:38:07;;;;;;;;;;;;;;;5.33;100.00;99283.91;2088989;28;35158;-69
2022/11/17 04:39:11;;;;;;;;;;;;;;;5.32;100.00;99285.66;2088906;28;31944;-69
2022/11/17 04:40:13;;;;;;;;;;;;;;;5.33;100.00;99287.41;2088853;28;30670;-69
2022/11/17 04:42:36;;;;;;;;;;;;;;;5.34;100.00;99265.25;2080335;28;39992;-70
2022/11/17 04:43:40;;;;;;;;;;;;;;;5.37;100.00;99303.25;2081758;28;19992;-70
2022/11/17 04:44:42;;;;;;;;;;;;;;;5.38;100.00;99276.63;2080715;28;41533;-70
2022/11/17 04:45:43;;;;;;;;;;;;;;;5.39;100.00;99285.50;2080971;28;28578;-70
2022/11/17 04:46:45;;;;;;;;;;;;;;;5.37;100.00;99288.19;2080506;28;38766;-70
2022/11/17 04:47:46;;;;;;;;;;;;;;;5.36;100.00;99281.13;2080825;28;37084;-70
2022/11/17 04:48:48;;;;;;;;;;;;;;;5.36;100.00;99262.56;2081125;28;21064;-69
2022/11/17 04:49:50;;;;;;;;;;;;;;;5.35;100.00;99264.34;2080884;28;35540;-70
2022/11/17 04:50:53;;;;;;;;;;;;;;;5.37;100.00;99271.41;2080491;28;35214;-70
2022/11/17 04:51:56;;;;;;;;;;;;;;;5.36;100.00;99273.16;2080241;28;38022;-70
2022/11/17 04:52:57;;;;;;;;;;;;;;;5.35;100.00;99276.75;2079981;28;36793;-70
2022/11/17 04:54:00;;;;;;;;;;;;;;;5.35;100.00;99274.09;2081172;28;19928;-69
2022/11/17 04:55:01;;;;;;;;;;;;;;;5.34;100.00;99278.50;2080308;28;38789;-70
2022/11/17 04:56:05;;;;;;;;;;;;;;;5.35;100.00;99271.44;2079973;28;36360;-70
2022/11/17 04:57:07;;;;;;;;;;;;;;;5.35;100.00;99272.31;2080440;28;31171;-70
2022/11/17 04:58:08;;;;;;;;;;;;;;;5.33;100.00;99270.63;2080584;28;37511;-69
2022/11/17 04:59:11;;;;;;;;;;;;;;;5.33;100.00;99276.78;2080528;28;34860;-70
2022/11/17 05:00:13;;;;;;;;;;;;;;;5.33;100.00;99284.75;2081173;28;20737;-70
2022/11/17 05:01:17;;;;;;;;;;;;;;;5.31;100.00;99283.94;2080397;28;41655;-70
2022/11/17 05:02:18;;;;;;;;;;;;;;;5.31;100.00;99265.34;2080611;28;35151;-69
2022/11/17 05:03:20;;;;;;;;;;;;;;;5.31;100.00;99277.72;2080696;28;31529;-70
2022/11/17 05:05:46;;;;;;;;;;;;;;;5.29;100.00;99282.22;2080541;28;33352;-69
2022/11/17 05:06:50;;;;;;;;;;;;;;;5.29;100.00;99291.06;2081042;28;40693;-69
2022/11/17 05:07:51;;;;;;;;;;;;;;;5.29;100.00;99290.19;2080270;28;33691;-70
2022/11/17 05:08:55;;;;;;;;;;;;;;;5.27;100.00;99287.56;2081532;28;19926;-70
2022/11/17 05:09:56;;;;;;;;;;;;;;;5.25;100.00;99256.69;2080313;28;34972;-69
2022/11/17 05:13:40;;;;;;;;;;;;;;;5.23;100.00;99291.22;2096657;28;39818;-70
2022/11/17 05:14:41;;;;;;;;;;;;;;;5.22;100.00;99305.38;2097039;28;37670;-70
2022/11/17 05:17:08;;;;;;;;;;;;;;;5.19;100.00;99300.19;2098301;28;20031;-70
2022/11/17 05:18:12;;;;;;;;;;;;;;;5.19;100.00;99275.41;2097399;28;31119;-70
2022/11/17 05:19:17;;;;;;;;;;;;;;;5.19;100.00;99262.16;2096958;28;38101;-69
2022/11/17 05:20:18;;;;;;;;;;;;;;;5.20;100.00;99263.91;2097917;28;19928;-69
2022/11/17 05:21:20;;;;;;;;;;;;;;;5.16;100.00;99260.47;2096942;28;34835;-70
2022/11/17 05:23:54;;;;;;;;;;;;;;;5.15;100.00;99287.91;2097415;28;31262;-70
2022/11/17 05:24:56;;;;;;;;;;;;;;;5.12;100.00;99274.75;2097119;28;36777;-70
2022/11/17 05:25:57;;;;;;;;;;;;;;;5.09;100.00;99248.28;2096940;28;37053;-70
2022/11/17 05:26:59;;;;;;;;;;;;;;;5.08;100.00;99273.94;2096893;28;38409;-66
2022/11/17 05:28:00;;;;;;;;;;;;;;;5.08;100.00;99252.72;2097035;28;33690;-67
2022/11/17 05:29:04;;;;;;;;;;;;;;;5.06;100.00;99254.56;2097683;28;19920;-68
2022/11/17 05:30:07;;;;;;;;;;;;;;;5.03;100.00;99278.50;2097011;28;36111;-69
2022/11/17 05:31:09;;;;;;;;;;;;;;;5.02;100.00;99271.44;2097355;28;31694;-70
2022/11/17 05:32:11;;;;;;;;;;;;;;;4.99;100.00;99258.28;2096845;28;36252;-70
2022/11/17 05:33:12;;;;;;;;;;;;;;;4.98;100.00;99264.50;2096835;28;39350;-70
2022/11/17 05:34:16;;;;;;;;;;;;;;;4.97;100.00;99260.09;2096977;28;31493;-71
2022/11/17 05:35:17;;;;;;;;;;;;;;;4.94;100.00;99228.38;2096829;28;37324;-72
2022/11/17 05:36:20;;;;;;;;;;;;;;;4.94;100.00;99255.75;2098008;28;19925;-70
2022/11/17 05:37:22;;;;;;;;;;;;;;;4.93;100.00;99261.09;2096747;28;34358;-70
2022/11/17 05:38:24;;;;;;;;;;;;;;;4.94;100.00;99342.41;2096741;28;32133;-70
2022/11/17 05:39:25;;;;;;;;;;;;;;;4.93;100.00;99272.56;2097262;28;20119;-70
2022/11/17 05:40:27;;;;;;;;;;;;;;;4.91;100.00;99258.47;2097135;28;33727;-69
2022/11/17 05:41:28;;;;;;;;;;;;;;;4.91;100.00;99262.94;2096656;28;38002;-69
2022/11/17 05:42:35;;;;;;;;;;;;;;;4.90;100.00;99288.59;2097448;28;20014;-71
2022/11/17 05:43:36;;;;;;;;;;;;;;;4.89;100.00;99254.16;2097044;28;37638;-70
2022/11/17 05:44:38;;;;;;;;;;;;;;;4.88;100.00;99269.19;2096852;28;36589;-70
2022/11/17 05:45:41;;;;;;;;;;;;;;;4.86;100.00;99283.38;2096903;28;31804;-70
2022/11/17 05:46:42;;;;;;;;;;;;;;;4.85;100.00;99248.06;2097437;28;19916;-70
2022/11/17 05:47:44;;;;;;;;;;;;;;;4.82;100.00;99248.13;2097601;28;19913;-70
2022/11/17 05:48:48;;;;;;;;;;;;;;;4.80;100.00;99252.59;2097095;28;34906;-70
2022/11/17 05:49:50;;;;;;;;;;;;;;;4.79;100.00;99253.50;2096767;28;35251;-70
2022/11/17 05:50:53;;;;;;;;;;;;;;;4.79;100.00;99242.91;2097023;28;32694;-70
2022/11/17 05:51:54;;;;;;;;;;;;;;;4.76;100.00;99238.56;2096376;28;39569;-70
2022/11/17 05:52:56;;;;;;;;;;;;;;;4.74;100.00;99243.03;2097260;28;31035;-70
2022/11/17 05:54:00;;;;;;;;;;;;;;;4.73;100.00;99251.03;2096650;28;33155;-70
2022/11/17 05:55:01;;;;;;;;;;;;;;;4.75;100.00;99263.31;2096971;28;28758;-65
2022/11/17 05:56:27;;;;;;;;;;;;;;;4.75;100.00;99265.09;2097281;28;22219;-67
2022/11/17 05:57:31;;;;;;;;;;;;;;;4.73;100.00;99240.41;2096428;28;38190;-69
2022/11/17 05:58:36;;;;;;;;;;;;;;;4.72;100.00;99243.97;2096866;28;19924;-69
2022/11/17 05:59:44;;;;;;;;;;;;;;;4.71;100.00;99240.47;2095875;28;36916;-70
2022/11/17 06:00:51;;;;;;;;;;;;;;;4.71;100.00;99236.94;2097942;28;20062;-69
2022/11/17 06:02:04;;;;;;;;;;;;;;;4.71;100.00;99244.91;2096727;28;32163;-68
2022/11/17 06:03:15;;;;;;;;;;;;;;;4.71;100.00;99250.19;2096827;28;32070;-67
2022/11/17 06:04:18;;;;;;;;;;;;;;;4.69;100.00;99238.78;2096754;28;38673;-67
2022/11/17 06:05:22;;;;;;;;;;;;;;;4.67;100.00;99235.28;2096997;28;31543;-67
2022/11/17 06:06:27;;;;;;;;;;;;;;;4.67;100.00;99248.56;2096226;28;38558;-66
2022/11/17 06:07:29;;;;;;;;;;;;;;;4.68;100.00;99237.03;2097246;28;37361;-66
2022/11/17 06:08:31;;;;;;;;;;;;;;;4.67;100.00;99207.00;2098532;28;32534;-67
2022/11/17 06:09:35;;;;;;;;;;;;;;;4.66;100.00;99222.94;2098210;28;36631;-68
2022/11/17 06:10:37;;;;;;;;;;;;;;;4.65;100.00;99223.84;2098109;28;36542;-68
2022/11/17 06:11:38;;;;;;;;;;;;;;;4.67;100.00;99224.69;2098480;28;38245;-68
2022/11/17 06:12:43;;;;;;;;;;;;;;;4.66;100.00;99223.81;2098480;28;20298;-68
2022/11/17 06:13:47;;;;;;;;;;;;;;;4.69;100.00;99209.63;2098034;28;32658;-68